Pil'Vo, Russia
Current Conditions -  °F | °C
As of 10:30 PM on Friday 19 Dec 2014 (Local Time) from UHSS Reporting Station
Scattered Clouds Scattered Clouds  
Wind Chill:   Ceiling: Unl
Heat Index: 12°   Visibility: 6mi
Dew Point: 10°   Wind: 4mph
Humidity: 92%   Direction: 130°SE
Pressure: 30.09"   Gusts: NA
Location:  50.05°N, 142.17°E
Report Text: UHSS 191130Z 13002MPS 9999 SCT026CB M11/M12 Q1019 NOSIG RMK MTOBSC QFE763/1017 19820340
Loading
Personal Weather Stations






























Interactive Weather Map New forecast layout! Learn more

10-Day Weather Forecast

Advertisements
Track Severe Weather on mobile